Current | Forecast
Updated: 10:30 AM MSK on June 18, 2018
Observed at Moscow Sheremetyevo, Russia
Temperature 73°F
Humidity 47%
Dew Point 52°F
Wind SW at 7 mph
Pressure 30.04 in (Steady)
Conditions Clear
Visibility -
UV N/A
Clouds
Yesterday's Maximum 77°F
Yesterday's Minimum 52°F approx.
Yesterday's Heating Degree Days 1 approx.
Sunrise3:39 AM MSK
Sunset9:19 PM MSK
Moon Rise9:23 AM MSK
Moon Set12:01 AM MSK
Moon PhaseMoon Phase
Waxing Crescent
Raw METARMETAR UUEE 180730Z 22003MPS 180V260 CAVOK 23/11 Q1017 R24C/CLRD62 R24L/CLRD62 NOSIG


Monday
. High: 60° F.
Tuesday
. High: 59° F.
Wednesday
. High: 60° F.
Thursday
. High: 57° F.
Friday
. High: 57° F.
Saturday
. High: 59° F.
Sunday
. High: 60° F.
Monday
. High: 59° F.

Units: English | Metric

Find the Weather for any City, State or Zipcode, or Country:

U.S. State List | Severe Weather | Tropical Storms | Ski Conditions
United States | Canada | Central America | South America | Asia | Europe | Australia | Africa | Islands

Weather Underground

© Copyright 2018
The Weather Company, LLC